Recycle, Texas
Current Conditions -  °F | °C
As of 1:35 PM on Monday 22 Dec 2014 (Local Time) from KPEZ Reporting Station
Clear Clear  
Wind Chill: 67°   Ceiling: Unl
Heat Index: 67°   Visibility: 10mi
Dew Point: 54°   Wind: 5mph
Humidity: 63%   Direction: 220°SW
Pressure: 29.7"   Gusts: NA
Location:  29.0306°N, 98.0993°W
Report Text: KPEZ 221935Z AUTO 22004KT 10SM CLR 20/12 A2970 RMK AO2 T01960124
Loading
Personal Weather Stations






























Interactive Weather Map New forecast layout! Learn more

10-Day Weather Forecast

Advertisements
Track Severe Weather on mobile